Time,TemperatureF,DewpointF,PressureIn,WindDirection,WindDirectionDegrees,WindSpeedMPH,WindSpeedGustMPH,Humidity,HourlyPrecipIn,Conditions,Clouds,dailyrainin,SoftwareType,DateUTC
2013-01-03 00:04:00,37.3,35.0,30.17,NNW,332,0.0,3.0,92,0.00,,,0.00,weatherlink.com 1.10,2013-01-03 06:04:00,
2013-01-03 00:19:00,37.3,35.0,30.16,NNW,338,1.0,1.0,91,0.00,,,0.00,weatherlink.com 1.10,2013-01-03 06:19:00,
2013-01-03 00:34:00,37.3,35.0,30.16,NW,323,1.0,2.0,91,0.00,,,0.00,weatherlink.com 1.10,2013-01-03 06:34:00,
2013-01-03 00:49:00,37.2,35.0,30.17,NNW,329,1.0,4.0,91,0.00,,,0.00,weatherlink.com 1.10,2013-01-03 06:49:00,
2013-01-03 01:04:00,37.2,35.0,30.17,NNW,342,0.0,2.0,91,0.00,,,0.00,weatherlink.com 1.10,2013-01-03 07:04:00,
2013-01-03 01:19:00,37.1,35.0,30.18,NW,326,0.0,3.0,91,0.00,,,0.00,weatherlink.com 1.10,2013-01-03 07:19:00,
2013-01-03 01:34:00,37.1,35.0,30.17,WNW,295,0.0,0.0,91,0.00,,,0.00,weatherlink.com 1.10,2013-01-03 07:34:00,
2013-01-03 01:49:00,37.0,35.0,30.18,WNW,288,0.0,4.0,91,0.00,,,0.00,weatherlink.com 1.10,2013-01-03 07:49:00,
2013-01-03 02:04:00,37.0,35.0,30.18,NNE,26,0.0,5.0,91,0.00,,,0.00,weatherlink.com 1.10,2013-01-03 08:04:00,
2013-01-03 02:19:00,37.0,35.0,30.19,NW,310,0.0,3.0,91,0.00,,,0.00,weatherlink.com 1.10,2013-01-03 08:19:00,
2013-01-03 02:34:00,36.9,35.0,30.20,NW,310,0.0,1.0,91,0.00,,,0.00,weatherlink.com 1.10,2013-01-03 08:34:00,
2013-01-03 02:49:00,36.9,35.0,30.19,NW,322,0.0,1.0,91,0.00,,,0.00,weatherlink.com 1.10,2013-01-03 08:49:00,
2013-01-03 03:04:00,36.9,35.0,30.19,NW,322,0.0,0.0,92,0.00,,,0.00,weatherlink.com 1.10,2013-01-03 09:04:00,
2013-01-03 03:19:00,36.8,35.0,30.20,NW,322,0.0,1.0,91,0.00,,,0.00,weatherlink.com 1.10,2013-01-03 09:19:00,
2013-01-03 03:34:00,36.8,35.0,30.20,NW,323,0.0,1.0,91,0.00,,,0.00,weatherlink.com 1.10,2013-01-03 09:34:00,
2013-01-03 03:49:00,36.8,35.0,30.20,NNW,331,0.0,2.0,91,0.00,,,0.00,weatherlink.com 1.10,2013-01-03 09:49:00,
2013-01-03 04:04:00,36.8,35.0,30.20,NW,319,0.0,3.0,91,0.00,,,0.00,weatherlink.com 1.10,2013-01-03 10:04:00,
2013-01-03 04:19:00,36.6,34.0,30.19,NW,320,1.0,4.0,91,0.00,,,0.00,weatherlink.com 1.10,2013-01-03 10:19:00,
2013-01-03 04:34:00,36.4,34.0,30.20,NW,316,1.0,7.0,90,0.00,,,0.00,weatherlink.com 1.10,2013-01-03 10:34:00,
2013-01-03 04:49:00,36.3,34.0,30.20,NNW,327,0.0,6.0,91,0.00,,,0.00,weatherlink.com 1.10,2013-01-03 10:49:00,
2013-01-03 05:04:00,36.3,34.0,30.21,NNW,333,1.0,3.0,90,0.00,,,0.00,weatherlink.com 1.10,2013-01-03 11:04:00,
2013-01-03 05:19:00,36.2,34.0,30.21,WNW,299,0.0,5.0,90,0.00,,,0.00,weatherlink.com 1.10,2013-01-03 11:19:00,
2013-01-03 05:34:00,36.1,34.0,30.21,WNW,296,1.0,2.0,91,0.00,,,0.00,weatherlink.com 1.10,2013-01-03 11:34:00,
2013-01-03 05:49:00,36.0,33.0,30.22,ENE,77,0.0,4.0,90,0.00,,,0.00,weatherlink.com 1.10,2013-01-03 11:49:00,
2013-01-03 06:05:00,35.7,33.0,30.21,North,9,3.0,6.0,89,0.00,,,0.00,weatherlink.com 1.10,2013-01-03 12:05:00,
2013-01-03 06:20:00,35.6,33.0,30.22,NNW,344,1.0,7.0,89,0.00,,,0.00,weatherlink.com 1.10,2013-01-03 12:20:00,
2013-01-03 06:35:00,35.6,33.0,30.22,NNW,327,2.0,4.0,89,0.00,,,0.00,weatherlink.com 1.10,2013-01-03 12:35:00,
2013-01-03 06:50:00,35.5,32.0,30.22,North,350,0.0,4.0,88,0.00,,,0.00,weatherlink.com 1.10,2013-01-03 12:50:00,
2013-01-03 07:05:00,35.5,33.0,30.23,NNE,30,0.0,5.0,89,0.00,,,0.00,weatherlink.com 1.10,2013-01-03 13:05:00,
2013-01-03 07:20:00,35.3,32.0,30.23,NNW,342,3.0,5.0,88,0.00,,,0.00,weatherlink.com 1.10,2013-01-03 13:20:00,
2013-01-03 07:35:00,35.1,32.0,30.23,NNW,327,0.0,2.0,87,0.00,,,0.00,weatherlink.com 1.10,2013-01-03 13:35:00,
2013-01-03 07:50:00,35.1,32.0,30.23,North,5,0.0,2.0,88,0.00,,,0.00,weatherlink.com 1.10,2013-01-03 13:50:00,
2013-01-03 08:05:00,35.2,32.0,30.24,North,350,2.0,3.0,88,0.00,,,0.00,weatherlink.com 1.10,2013-01-03 14:05:00,
2013-01-03 08:20:00,35.2,32.0,30.25,NNW,331,2.0,6.0,87,0.00,,,0.00,weatherlink.com 1.10,2013-01-03 14:20:00,
2013-01-03 08:35:00,35.5,32.0,30.25,NNW,330,5.0,7.0,87,0.00,,,0.00,weatherlink.com 1.10,2013-01-03 14:35:00,
2013-01-03 08:50:00,35.7,32.0,30.25,West,267,1.0,5.0,86,0.00,,,0.00,weatherlink.com 1.10,2013-01-03 14:50:00,
2013-01-03 09:05:00,36.0,32.0,30.26,NNE,32,3.0,9.0,86,0.00,,,0.00,weatherlink.com 1.10,2013-01-03 15:05:00,
2013-01-03 09:20:00,36.3,32.0,30.27,North,355,2.0,9.0,84,0.00,,,0.00,weatherlink.com 1.10,2013-01-03 15:20:00,
2013-01-03 09:35:00,36.6,32.0,30.26,NNW,344,3.0,5.0,84,0.00,,,0.00,weatherlink.com 1.10,2013-01-03 15:35:00,
2013-01-03 09:50:00,36.8,32.0,30.27,North,5,0.0,7.0,83,0.00,,,0.00,weatherlink.com 1.10,2013-01-03 15:50:00,
2013-01-03 10:05:00,37.1,32.0,30.28,NNW,346,1.0,4.0,82,0.00,,,0.00,weatherlink.com 1.10,2013-01-03 16:05:00,
2013-01-03 10:20:00,37.4,32.0,30.27,NNW,331,0.0,6.0,82,0.00,,,0.00,weatherlink.com 1.10,2013-01-03 16:20:00,
2013-01-03 10:35:00,37.7,32.0,30.27,NNW,346,2.0,6.0,81,0.00,,,0.00,weatherlink.com 1.10,2013-01-03 16:35:00,
2013-01-03 10:50:00,38.0,32.0,30.26,ENE,60,0.0,7.0,80,0.00,,,0.00,weatherlink.com 1.10,2013-01-03 16:50:00,
2013-01-03 11:05:00,38.6,32.0,30.26,NNE,22,0.0,8.0,78,0.00,,,0.00,weatherlink.com 1.10,2013-01-03 17:05:00,
2013-01-03 11:20:00,38.8,33.0,30.26,NNW,339,3.0,6.0,78,0.00,,,0.00,weatherlink.com 1.10,2013-01-03 17:20:00,
2013-01-03 11:35:00,39.1,33.0,30.25,North,355,3.0,5.0,78,0.00,,,0.00,weatherlink.com 1.10,2013-01-03 17:35:00,
2013-01-03 11:50:00,39.6,33.0,30.25,WNW,302,2.0,6.0,76,0.00,,,0.00,weatherlink.com 1.10,2013-01-03 17:50:00,
2013-01-03 12:05:00,40.2,33.0,30.25,NNE,27,1.0,6.0,75,0.00,,,0.00,weatherlink.com 1.10,2013-01-03 18:05:00,
2013-01-03 12:20:00,40.6,32.0,30.24,NNW,342,0.0,7.0,72,0.00,,,0.00,weatherlink.com 1.10,2013-01-03 18:20:00,
2013-01-03 12:35:00,40.8,32.0,30.24,WNW,300,2.0,9.0,71,0.00,,,0.00,weatherlink.com 1.10,2013-01-03 18:35:00,
2013-01-03 12:50:00,40.9,33.0,30.24,NW,321,0.0,5.0,72,0.00,,,0.00,weatherlink.com 1.10,2013-01-03 18:50:00,
2013-01-03 13:05:00,40.9,32.0,30.24,NNE,22,0.0,6.0,70,0.00,,,0.00,weatherlink.com 1.10,2013-01-03 19:05:00,
2013-01-03 13:50:00,41.3,31.0,30.25,NNE,26,0.0,5.0,66,0.00,,,0.00,weatherlink.com 1.10,2013-01-03 19:50:00,
2013-01-03 14:05:00,41.8,30.0,30.25,East,82,5.0,9.0,63,0.00,,,0.00,weatherlink.com 1.10,2013-01-03 20:05:00,
2013-01-03 14:20:00,42.5,30.0,30.25,NW,320,3.0,8.0,62,0.00,,,0.00,weatherlink.com 1.10,2013-01-03 20:20:00,
2013-01-03 14:36:00,43.0,29.0,30.26,NE,40,0.0,8.0,59,0.00,,,0.00,weatherlink.com 1.10,2013-01-03 20:36:00,
2013-01-03 14:51:00,43.2,30.0,30.27,NNW,339,1.0,6.0,61,0.00,,,0.00,weatherlink.com 1.10,2013-01-03 20:51:00,
2013-01-03 15:06:00,43.5,31.0,30.27,NNW,335,0.0,5.0,62,0.00,,,0.00,weatherlink.com 1.10,2013-01-03 21:06:00,
2013-01-03 15:21:00,43.2,33.0,30.27,NNE,26,1.0,6.0,67,0.00,,,0.00,weatherlink.com 1.10,2013-01-03 21:21:00,
2013-01-03 15:36:00,43.1,32.0,30.27,NNW,327,4.0,5.0,66,0.00,,,0.00,weatherlink.com 1.10,2013-01-03 21:36:00,
2013-01-03 15:51:00,42.9,32.0,30.28,NE,53,0.0,6.0,66,0.00,,,0.00,weatherlink.com 1.10,2013-01-03 21:51:00,
2013-01-03 16:06:00,42.7,34.0,30.28,NNW,331,0.0,3.0,72,0.00,,,0.00,weatherlink.com 1.10,2013-01-03 22:06:00,
2013-01-03 16:21:00,41.9,33.0,30.28,NW,309,0.0,2.0,71,0.00,,,0.00,weatherlink.com 1.10,2013-01-03 22:21:00,
2013-01-03 16:36:00,41.1,34.0,30.28,NW,321,0.0,3.0,75,0.00,,,0.00,weatherlink.com 1.10,2013-01-03 22:36:00,
2013-01-03 16:51:00,39.6,33.0,30.29,NW,314,0.0,0.0,78,0.00,,,0.00,weatherlink.com 1.10,2013-01-03 22:51:00,
2013-01-03 17:06:00,37.9,32.0,30.29,NW,325,0.0,1.0,80,0.00,,,0.00,weatherlink.com 1.10,2013-01-03 23:06:00,
2013-01-03 17:21:00,36.6,32.0,30.30,North,10,0.0,0.0,83,0.00,,,0.00,weatherlink.com 1.10,2013-01-03 23:21:00,
2013-01-03 17:36:00,35.5,31.0,30.30,North,10,0.0,0.0,85,0.00,,,0.00,weatherlink.com 1.10,2013-01-03 23:36:00,
2013-01-03 17:51:00,34.7,31.0,30.30,North,10,0.0,0.0,87,0.00,,,0.00,weatherlink.com 1.10,2013-01-03 23:51:00,
2013-01-03 18:06:00,34.1,31.0,30.31,North,10,0.0,0.0,87,0.00,,,0.00,weatherlink.com 1.10,2013-01-04 00:06:00,
2013-01-03 18:21:00,33.7,31.0,30.31,North,10,0.0,0.0,88,0.00,,,0.00,weatherlink.com 1.10,2013-01-04 00:21:00,
2013-01-03 18:36:00,33.2,30.0,30.31,North,10,0.0,0.0,88,0.00,,,0.00,weatherlink.com 1.10,2013-01-04 00:36:00,
2013-01-03 18:51:00,32.8,30.0,30.31,North,10,0.0,0.0,88,0.00,,,0.00,weatherlink.com 1.10,2013-01-04 00:51:00,
2013-01-03 19:06:00,32.4,30.0,30.31,North,10,0.0,0.0,89,0.00,,,0.00,weatherlink.com 1.10,2013-01-04 01:06:00,
2013-01-03 19:21:00,32.3,30.0,30.31,North,10,0.0,0.0,89,0.00,,,0.00,weatherlink.com 1.10,2013-01-04 01:21:00,
2013-01-03 19:36:00,32.3,29.0,30.31,NNE,33,0.0,0.0,88,0.00,,,0.00,weatherlink.com 1.10,2013-01-04 01:36:00,
2013-01-03 19:51:00,31.7,29.0,30.32,SE,138,0.0,0.0,89,0.00,,,0.00,weatherlink.com 1.10,2013-01-04 01:51:00,
2013-01-03 20:06:00,31.1,28.0,30.34,SE,138,0.0,0.0,89,0.00,,,0.00,weatherlink.com 1.10,2013-01-04 02:06:00,
2013-01-03 20:21:00,30.5,28.0,30.35,SE,138,0.0,0.0,90,0.00,,,0.00,weatherlink.com 1.10,2013-01-04 02:21:00,
2013-01-03 20:36:00,30.1,28.0,30.35,SE,138,0.0,0.0,91,0.00,,,0.00,weatherlink.com 1.10,2013-01-04 02:36:00,
2013-01-03 20:51:00,29.8,28.0,30.35,SE,138,0.0,0.0,92,0.00,,,0.00,weatherlink.com 1.10,2013-01-04 02:51:00,
2013-01-03 21:06:00,29.6,28.0,30.36,SE,138,0.0,0.0,92,0.00,,,0.00,weatherlink.com 1.10,2013-01-04 03:06:00,
2013-01-03 21:21:00,29.4,27.0,30.37,SE,138,0.0,0.0,92,0.00,,,0.00,weatherlink.com 1.10,2013-01-04 03:21:00,
2013-01-03 21:36:00,29.1,27.0,30.37,SE,138,0.0,0.0,92,0.00,,,0.00,weatherlink.com 1.10,2013-01-04 03:36:00,
2013-01-03 21:51:00,28.8,27.0,30.37,SE,138,0.0,0.0,92,0.00,,,0.00,weatherlink.com 1.10,2013-01-04 03:51:00,
2013-01-03 22:06:00,28.6,27.0,30.37,SE,138,0.0,0.0,93,0.00,,,0.00,weatherlink.com 1.10,2013-01-04 04:06:00,
2013-01-03 22:21:00,28.4,27.0,30.37,SE,138,0.0,0.0,93,0.00,,,0.00,weatherlink.com 1.10,2013-01-04 04:21:00,
2013-01-03 22:36:00,28.3,27.0,30.36,SE,138,0.0,0.0,93,0.00,,,0.00,weatherlink.com 1.10,2013-01-04 04:36:00,
2013-01-03 22:51:00,28.0,26.0,30.37,SE,138,0.0,0.0,93,0.00,,,0.00,weatherlink.com 1.10,2013-01-04 04:51:00,
2013-01-03 23:21:00,27.5,26.0,30.36,SE,138,0.0,0.0,93,0.00,,,0.00,weatherlink.com 1.10,2013-01-04 05:21:00,
2013-01-03 23:36:00,27.4,26.0,30.36,SE,138,0.0,0.0,93,0.00,,,0.00,weatherlink.com 1.10,2013-01-04 05:36:00,
2013-01-03 23:52:00,27.3,26.0,30.35,SE,138,0.0,0.0,94,0.00,,,0.00,weatherlink.com 1.10,2013-01-04 05:52:00,